This is the latest recevied weather packets stored in our database for station/object EA7AIS-10. If no packets are shown the sender has not sent any weather packets the latest 10 day(s).
| Time | Temp. | Humidity | Pressure | Rain* | Wind** | Luminosity | Snow |
|---|---|---|---|---|---|---|---|
| 1778063506 | 22.78° C | 42% | 1008.4 hPa | - | - | - | - |
| 1778062606 | 22.22° C | 44% | 1008.5 hPa | - | - | - | - |
| 1778061707 | 22.78° C | 44% | 1008.5 hPa | - | - | - | - |
| 1778060806 | 23.33° C | 49% | 1008.5 hPa | - | - | - | - |
| 1778059906 | 24.44° C | 46% | 1008.6 hPa | - | - | - | - |
| 1778059006 | 25° C | 43% | 1008.5 hPa | - | - | - | - |
| 1778058106 | 25.56° C | 43% | 1008.5 hPa | - | - | - | - |
| 1778057206 | 27.22° C | 38% | 1008.5 hPa | - | - | - | - |
| 1778056306 | 27.78° C | 40% | 1008.6 hPa | - | - | - | - |
| 1778055406 | 25° C | 44% | 1008.7 hPa | - | - | - | - |
| 1778054506 | 24.44° C | 46% | 1008.8 hPa | - | - | - | - |
| 1778053606 | 25.56° C | 45% | 1008.8 hPa | - | - | - | - |
| 1778052706 | 26.11° C | 42% | 1008.8 hPa | - | - | - | - |
| 1778051806 | 25° C | 47% | 1008.6 hPa | - | - | - | - |
| 1778050906 | 22.22° C | 54% | 1008.6 hPa | - | - | - | - |
| 1778050005 | 18.89° C | 66% | 1008.6 hPa | - | - | - | - |
| 1778049105 | 17.78° C | 68% | 1008.5 hPa | - | - | - | - |
| 1778048205 | 16.67° C | 75% | 1008.6 hPa | - | - | - | - |
| 1778047306 | 15° C | 81% | 1008.5 hPa | - | - | - | - |
| 1778046405 | 13.89° C | 83% | 1008.4 hPa | - | - | - | - |
| 1778045505 | 13.33° C | 84% | 1008.4 hPa | - | - | - | - |
| 1778044605 | 13.33° C | 83% | 1008.4 hPa | - | - | - | - |
| 1778043705 | 13.89° C | 82% | 1008.4 hPa | - | - | - | - |
| 1778042805 | 13.89° C | 82% | 1008.4 hPa | - | - | - | - |
| 1778041905 | 13.89° C | 81% | 1008.3 hPa | - | - | - | - |
* Rain since midnight (hover to see other rain measurements)
** Current wind speed in m/s (hover to see current wind gust speed)